Time;durP1;ratioP1;P1;durP2;ratioP2;P2;SDS_P1;SDS_P2;PMS_P1;PMS_P2;Temp;Humidity;BMP_temperature;BMP_pressure;BME280_temperature;BME280_humidity;BME280_pressure;Samples;Min_cycle;Max_cycle;Signal;HPM_P1;HPM_P2
2022/02/24 00:02:07;;;;;;;8.23;3.10;;;4.40;97.30;;;;;;5034688;28;20585;-94
2022/02/24 00:04:33;;;;;;;8.33;2.70;;;4.40;97.30;;;;;;5036051;28;20176;-94
2022/02/24 00:06:59;;;;;;;14.83;2.30;;;4.40;97.30;;;;;;5034772;28;20442;-94
2022/02/24 00:09:25;;;;;;;10.57;2.27;;;4.40;97.30;;;;;;5035439;28;20226;-94
2022/02/24 00:11:51;;;;;;;7.87;2.77;;;4.40;97.30;;;;;;5034596;28;20840;-94
2022/02/24 00:14:16;;;;;;;5.60;2.40;;;4.30;97.30;;;;;;5034660;28;20729;-93
2022/02/24 00:16:42;;;;;;;4.50;2.00;;;4.30;97.30;;;;;;5034062;28;20185;-94
2022/02/24 00:19:07;;;;;;;6.37;2.60;;;4.30;97.30;;;;;;5034276;28;20184;-94
2022/02/24 00:21:35;;;;;;;12.63;2.43;;;4.20;97.30;;;;;;5034030;28;20204;-94
2022/02/24 00:24:01;;;;;;;4.20;2.03;;;4.10;97.30;;;;;;5034972;28;20188;-94
2022/02/24 00:26:26;;;;;;;6.40;2.43;;;4.10;97.30;;;;;;5034301;28;20841;-93
2022/02/24 00:28:52;;;;;;;4.90;2.00;;;4.00;97.30;;;;;;5033962;28;20200;-94
2022/02/24 00:31:17;;;;;;;6.50;2.27;;;3.90;97.30;;;;;;5034184;28;20256;-94
2022/02/24 00:33:50;;;;;;;7.00;2.03;;;3.90;97.30;;;;;;5034035;28;20303;-94
2022/02/24 00:36:18;;;;;;;5.43;2.10;;;3.80;97.30;;;;;;5053248;28;20176;-94
2022/02/24 00:38:51;;;;;;;3.40;2.47;;;3.60;97.30;;;;;;5053874;28;20525;-93
2022/02/24 00:41:19;;;;;;;4.73;2.30;;;3.50;97.30;;;;;;5054181;28;20474;-94
2022/02/24 00:43:47;;;;;;;3.97;2.73;;;3.30;97.30;;;;;;5053951;28;20415;-94
2022/02/24 00:46:15;;;;;;;2.80;2.10;;;3.20;97.30;;;;;;5053564;28;20419;-94
2022/02/24 00:48:41;;;;;;;6.20;2.40;;;3.20;97.30;;;;;;5053168;28;20465;-93
2022/02/24 00:51:09;;;;;;;4.50;2.30;;;3.20;97.30;;;;;;5053679;28;20517;-94
2022/02/24 00:53:42;;;;;;;6.20;2.70;;;3.10;97.30;;;;;;5052918;28;20175;-94
2022/02/24 00:56:11;;;;;;;7.53;2.20;;;3.10;97.30;;;;;;5053591;28;20432;-94
2022/02/24 00:58:39;;;;;;;5.20;2.80;;;3.10;97.30;;;;;;5053354;28;20441;-94
2022/02/24 01:01:07;;;;;;;5.23;2.80;;;3.10;97.30;;;;;;5013372;28;20963;-94
2022/02/24 01:03:33;;;;;;;4.50;2.60;;;3.10;97.30;;;;;;5013213;28;20475;-94
2022/02/24 01:05:58;;;;;;;3.87;2.50;;;3.10;97.30;;;;;;5013793;28;20826;-94
2022/02/24 01:08:24;;;;;;;5.57;2.50;;;3.00;97.30;;;;;;5012910;28;20253;-94
2022/02/24 01:10:49;;;;;;;7.10;2.63;;;3.00;97.30;;;;;;5013786;28;20335;-94
2022/02/24 01:13:18;;;;;;;7.30;2.30;;;3.00;97.30;;;;;;5013281;28;20204;-94
2022/02/24 01:15:48;;;;;;;13.67;2.90;;;3.00;97.30;;;;;;5013709;28;20668;-94
2022/02/24 01:18:18;;;;;;;7.20;3.10;;;2.90;97.30;;;;;;5013400;28;20437;-94
2022/02/24 01:20:48;;;;;;;8.73;2.83;;;2.90;97.30;;;;;;5013221;28;20463;-94
2022/02/24 01:23:19;;;;;;;2.77;2.20;;;2.80;97.30;;;;;;5013490;28;20925;-94
2022/02/24 01:25:47;;;;;;;4.63;2.30;;;2.70;97.30;;;;;;5013210;28;20503;-93
2022/02/24 01:28:12;;;;;;;6.40;2.60;;;2.70;97.30;;;;;;5012839;28;20726;-94
2022/02/24 01:30:38;;;;;;;7.03;2.87;;;2.60;97.30;;;;;;5012796;28;20982;-94
2022/02/24 01:33:11;;;;;;;8.60;2.40;;;2.50;97.30;;;;;;5012766;28;20181;-94
2022/02/24 01:35:39;;;;;;;5.40;2.57;;;2.50;97.30;;;;;;5013201;28;20562;-94
2022/02/24 01:38:09;;;;;;;6.27;2.17;;;2.50;97.30;;;;;;5012729;28;20955;-94
2022/02/24 01:40:42;;;;;;;4.97;2.93;;;2.50;97.30;;;;;;5013051;28;20419;-94
2022/02/24 01:43:07;;;;;;;8.37;2.37;;;2.60;97.30;;;;;;5012508;28;20463;-94
2022/02/24 01:45:39;;;;;;;2.80;2.10;;;2.70;97.30;;;;;;5012964;28;20420;-94
2022/02/24 01:48:12;;;;;;;5.10;2.60;;;2.80;97.30;;;;;;5012875;28;20563;-94
2022/02/24 01:50:39;;;;;;;6.13;2.63;;;2.80;97.30;;;;;;5012778;28;20907;-94
2022/02/24 01:53:07;;;;;;;4.03;2.23;;;2.90;97.30;;;;;;5012533;28;20416;-94
2022/02/24 01:55:40;;;;;;;10.13;2.17;;;2.90;97.30;;;;;;5012781;28;20534;-94
2022/02/24 01:58:08;;;;;;;1.80;1.67;;;2.90;97.30;;;;;;5013402;28;20961;-94
2022/02/24 02:00:41;;;;;;;3.93;1.80;;;2.90;97.30;;;;;;5012148;28;20434;-94
2022/02/24 02:03:08;;;;;;;5.70;2.40;;;3.00;97.30;;;;;;5028700;28;20423;-94
2022/02/24 02:05:35;;;;;;;3.00;2.37;;;3.00;97.30;;;;;;5027939;28;20431;-93
2022/02/24 02:08:09;;;;;;;7.13;3.17;;;3.00;97.30;;;;;;5028434;28;20571;-94
2022/02/24 02:10:38;;;;;;;6.63;2.20;;;3.00;97.30;;;;;;5028628;28;20821;-94
2022/02/24 02:13:08;;;;;;;5.67;2.30;;;3.00;97.30;;;;;;5028807;28;20424;-94
2022/02/24 02:15:38;;;;;;;3.33;2.20;;;3.00;97.30;;;;;;5029359;28;20770;-94
2022/02/24 02:18:04;;;;;;;5.20;2.30;;;3.00;97.30;;;;;;5028899;28;20820;-94
2022/02/24 02:20:29;;;;;;;4.70;2.60;;;3.00;97.30;;;;;;5028699;28;20408;-94
2022/02/24 02:22:57;;;;;;;10.37;2.50;;;3.00;97.30;;;;;;5028522;28;20212;-93
2022/02/24 02:25:28;;;;;;;2.90;2.03;;;3.00;97.30;;;;;;5028595;28;20173;-94
2022/02/24 02:27:58;;;;;;;4.20;2.00;;;3.00;97.30;;;;;;5028099;28;20935;-94
2022/02/24 02:30:31;;;;;;;3.63;2.10;;;3.00;97.30;;;;;;5028558;28;20458;-94
2022/02/24 02:32:59;;;;;;;3.10;2.03;;;3.00;97.30;;;;;;5028587;28;20447;-94
2022/02/24 02:35:27;;;;;;;4.43;2.13;;;3.10;97.30;;;;;;5028508;28;20420;-93
2022/02/24 02:38:00;;;;;;;9.60;2.43;;;3.10;97.30;;;;;;5028217;28;20924;-95
2022/02/24 02:40:28;;;;;;;8.13;2.60;;;3.20;97.30;;;;;;5028559;28;20404;-94
2022/02/24 02:42:56;;;;;;;5.67;2.10;;;3.20;97.30;;;;;;5028194;28;20932;-95
2022/02/24 02:45:22;;;;;;;8.37;3.23;;;3.30;97.30;;;;;;5012020;28;20443;-93
2022/02/24 02:47:50;;;;;;;7.60;2.70;;;3.40;97.30;;;;;;5024071;28;20491;-95
2022/02/24 02:50:17;;;;;;;10.87;2.73;;;3.40;97.30;;;;;;5031587;28;20631;-94
2022/02/24 02:52:43;;;;;;;5.10;2.77;;;3.40;97.30;;;;;;5031968;28;20442;-94
2022/02/24 02:55:11;;;;;;;3.00;2.00;;;3.50;97.30;;;;;;5031365;28;20506;-94
2022/02/24 02:57:39;;;;;;;7.47;2.10;;;3.60;97.30;;;;;;5032494;28;20192;-94
2022/02/24 03:00:11;;;;;;;11.40;2.60;;;3.60;97.30;;;;;;5034515;28;20497;-94
2022/02/24 03:02:36;;;;;;;4.20;1.77;;;3.60;97.30;;;;;;5034650;28;20466;-94
2022/02/24 03:05:03;;;;;;;3.73;2.33;;;3.60;97.30;;;;;;5034999;28;20483;-95
2022/02/24 03:07:28;;;;;;;3.47;1.90;;;3.60;97.30;;;;;;5034803;28;20196;-94
2022/02/24 03:09:54;;;;;;;4.90;2.70;;;3.60;97.30;;;;;;5034611;28;20446;-93
2022/02/24 03:12:20;;;;;;;4.50;2.23;;;3.60;97.30;;;;;;5034641;28;20190;-93
2022/02/24 03:14:46;;;;;;;6.63;2.13;;;3.60;97.30;;;;;;5034319;28;20548;-94
2022/02/24 03:17:14;;;;;;;5.63;2.30;;;3.60;97.30;;;;;;5037122;28;20286;-94
2022/02/24 03:19:40;;;;;;;8.60;2.30;;;3.60;97.30;;;;;;5038142;28;20422;-94
2022/02/24 03:22:11;;;;;;;4.90;1.90;;;3.60;97.30;;;;;;5039221;28;20480;-94
2022/02/24 03:24:39;;;;;;;4.67;2.37;;;3.60;97.30;;;;;;5038305;28;20176;-94
2022/02/24 03:27:07;;;;;;;4.13;1.70;;;3.60;97.30;;;;;;5038549;28;20438;-94
2022/02/24 03:29:40;;;;;;;5.57;2.03;;;3.60;97.30;;;;;;5038427;28;20415;-94
2022/02/24 03:32:09;;;;;;;5.60;2.40;;;3.70;97.30;;;;;;5037999;28;20836;-94
2022/02/24 03:34:41;;;;;;;4.67;1.90;;;3.70;97.30;;;;;;5042755;28;20525;-94
2022/02/24 03:37:07;;;;;;;11.60;2.40;;;3.70;97.30;;;;;;5038576;28;20438;-94
2022/02/24 03:39:38;;;;;;;7.57;2.13;;;3.70;97.30;;;;;;5037846;28;20526;-94
2022/02/24 03:42:07;;;;;;;7.60;2.53;;;3.70;97.30;;;;;;5038097;28;20690;-94
2022/02/24 03:44:38;;;;;;;3.73;1.90;;;3.70;97.30;;;;;;5037445;28;20415;-94
2022/02/24 03:47:05;;;;;;;3.20;2.20;;;3.70;97.30;;;;;;5037686;28;20540;-94
2022/02/24 03:49:31;;;;;;;4.10;1.97;;;3.70;97.30;;;;;;5037458;28;20419;-92
2022/02/24 03:51:56;;;;;;;7.53;2.10;;;3.70;97.30;;;;;;5038037;28;20433;-92
2022/02/24 03:54:22;;;;;;;9.23;2.37;;;3.70;97.30;;;;;;5038185;28;20199;-91
2022/02/24 03:56:47;;;;;;;9.67;2.37;;;3.60;97.30;;;;;;5037800;28;20215;-91
2022/02/24 03:59:13;;;;;;;9.63;2.00;;;3.60;97.30;;;;;;5037506;28;20257;-92
2022/02/24 04:01:39;;;;;;;6.33;3.90;;;3.60;97.30;;;;;;5037798;28;20654;-92
2022/02/24 04:04:06;;;;;;;3.60;1.87;;;3.60;97.30;;;;;;5037823;28;20242;-92
2022/02/24 04:06:32;;;;;;;5.80;2.30;;;3.60;97.30;;;;;;5038036;28;20175;-91
2022/02/24 04:08:57;;;;;;;5.60;1.93;;;3.70;97.30;;;;;;5037262;28;20921;-92
2022/02/24 04:11:23;;;;;;;3.80;2.10;;;3.70;97.30;;;;;;5037133;28;20171;-92
2022/02/24 04:13:48;;;;;;;4.13;1.63;;;3.60;97.30;;;;;;5037328;28;20325;-91
2022/02/24 04:16:14;;;;;;;6.30;2.00;;;3.60;97.30;;;;;;5056484;28;20164;-92
2022/02/24 04:18:40;;;;;;;5.27;1.90;;;3.60;97.30;;;;;;5038276;28;20207;-93
2022/02/24 04:21:05;;;;;;;4.03;2.23;;;3.60;97.30;;;;;;5036669;28;20214;-92
2022/02/24 04:23:31;;;;;;;5.40;2.53;;;3.50;97.30;;;;;;5037341;28;20184;-93
2022/02/24 04:25:56;;;;;;;7.33;2.20;;;3.50;97.30;;;;;;5037430;28;20176;-92
2022/02/24 04:28:22;;;;;;;7.53;2.30;;;3.50;97.30;;;;;;5036075;28;20196;-93
2022/02/24 04:30:48;;;;;;;6.80;2.13;;;3.50;97.30;;;;;;5037108;28;20180;-93
2022/02/24 04:33:13;;;;;;;2.97;2.07;;;3.50;97.30;;;;;;5036938;28;20230;-92
2022/02/24 04:35:39;;;;;;;4.70;1.90;;;3.50;97.30;;;;;;5036818;28;20301;-93
2022/02/24 04:38:05;;;;;;;4.10;2.07;;;3.50;97.30;;;;;;5036937;28;20200;-93
2022/02/24 04:40:30;;;;;;;8.33;2.13;;;3.50;97.30;;;;;;5036374;28;20425;-94
2022/02/24 04:42:56;;;;;;;4.17;2.10;;;3.50;97.30;;;;;;5049600;28;20683;-93
2022/02/24 04:45:21;;;;;;;6.20;2.00;;;3.50;97.30;;;;;;5053180;28;20191;-93
2022/02/24 04:47:47;;;;;;;5.07;2.53;;;3.50;97.30;;;;;;5053241;28;20638;-93
2022/02/24 04:50:12;;;;;;;4.50;2.47;;;3.50;97.30;;;;;;5054365;28;20179;-93
2022/02/24 04:52:39;;;;;;;7.47;2.23;;;3.60;97.30;;;;;;5053549;28;20176;-92
2022/02/24 04:55:06;;;;;;;6.37;4.17;;;3.60;97.30;;;;;;5053558;28;20179;-93
2022/02/24 04:57:31;;;;;;;6.30;2.63;;;3.60;97.30;;;;;;5053632;28;20533;-93
2022/02/24 04:59:57;;;;;;;12.27;2.00;;;3.60;97.30;;;;;;5054595;28;20450;-93
2022/02/24 05:02:23;;;;;;;9.70;2.80;;;3.60;97.30;;;;;;5053883;28;20218;-93
2022/02/24 05:04:49;;;;;;;2.60;1.80;;;3.60;97.30;;;;;;5053869;28;20183;-93
2022/02/24 05:07:15;;;;;;;7.60;2.30;;;3.60;97.30;;;;;;5053902;28;20294;-93
2022/02/24 05:09:40;;;;;;;11.23;2.77;;;3.60;97.30;;;;;;5053624;28;20422;-92
2022/02/24 05:12:06;;;;;;;7.93;2.60;;;3.60;97.30;;;;;;5053476;28;20187;-93
2022/02/24 05:14:32;;;;;;;4.83;2.40;;;3.60;97.30;;;;;;5054029;28;20175;-94
2022/02/24 05:16:58;;;;;;;5.73;2.70;;;3.60;97.30;;;;;;5053985;28;20437;-93
2022/02/24 05:19:24;;;;;;;3.83;2.50;;;3.60;97.30;;;;;;5053961;28;20218;-93
2022/02/24 05:21:50;;;;;;;3.90;2.27;;;3.60;97.30;;;;;;5053818;28;20545;-93
2022/02/24 05:24:15;;;;;;;2.90;1.80;;;3.70;97.30;;;;;;5054530;28;20482;-93
2022/02/24 05:26:41;;;;;;;5.40;2.77;;;3.70;97.30;;;;;;5053107;28;20590;-93
2022/02/24 05:29:06;;;;;;;6.00;2.30;;;3.80;97.30;;;;;;5053804;28;20680;-93
2022/02/24 05:31:32;;;;;;;9.53;2.90;;;3.80;97.30;;;;;;5053241;28;20780;-93
2022/02/24 05:33:58;;;;;;;6.27;1.90;;;3.90;97.30;;;;;;5053302;28;20274;-93
2022/02/24 05:36:23;;;;;;;3.80;2.07;;;3.90;97.30;;;;;;5054004;28;20186;-93
2022/02/24 05:38:50;;;;;;;6.60;2.20;;;3.90;97.30;;;;;;5053959;28;20199;-93
2022/02/24 05:41:15;;;;;;;3.20;2.27;;;3.90;97.30;;;;;;5054015;28;20223;-92
2022/02/24 05:43:41;;;;;;;15.53;2.57;;;3.90;97.30;;;;;;5034446;28;20435;-94
2022/02/24 05:46:06;;;;;;;3.33;2.50;;;3.90;97.30;;;;;;5033961;28;20172;-94
2022/02/24 05:48:32;;;;;;;3.80;1.73;;;4.00;97.30;;;;;;5029755;28;20223;-94
2022/02/24 05:50:57;;;;;;;6.20;2.23;;;4.00;97.30;;;;;;5033697;28;20178;-93
2022/02/24 05:53:23;;;;;;;5.03;2.07;;;4.00;97.30;;;;;;5036352;28;20184;-94
2022/02/24 05:55:48;;;;;;;4.90;2.20;;;4.10;97.30;;;;;;5036554;28;20530;-92
2022/02/24 05:58:14;;;;;;;13.03;2.60;;;4.10;97.30;;;;;;5036593;28;20242;-92
2022/02/24 06:00:52;;;;;;;10.20;2.80;;;4.10;97.30;;;;;;5054035;28;20182;-94
2022/02/24 06:03:17;;;;;;;4.77;2.27;;;4.20;97.30;;;;;;5033971;28;20210;-93
2022/02/24 06:05:43;;;;;;;3.50;2.13;;;4.20;97.30;;;;;;5033601;28;21097;-93
2022/02/24 06:08:08;;;;;;;4.13;1.63;;;4.30;97.30;;;;;;5026159;28;20201;-94
2022/02/24 06:10:34;;;;;;;5.07;2.30;;;4.30;97.30;;;;;;5029299;28;20673;-93
2022/02/24 06:12:59;;;;;;;4.37;2.83;;;4.30;97.30;;;;;;5036002;28;20263;-93
2022/02/24 06:15:25;;;;;;;7.90;2.10;;;4.30;97.30;;;;;;5035617;28;20171;-94
2022/02/24 06:17:51;;;;;;;2.20;1.93;;;4.40;97.30;;;;;;5036236;28;20191;-94
2022/02/24 06:20:17;;;;;;;3.57;1.90;;;4.40;97.30;;;;;;5035900;28;20180;-93
2022/02/24 06:22:42;;;;;;;9.10;2.40;;;4.40;97.30;;;;;;5035797;28;20458;-93
2022/02/24 06:25:08;;;;;;;6.33;2.50;;;4.50;97.30;;;;;;5028471;28;20498;-93
2022/02/24 06:27:34;;;;;;;8.33;2.20;;;4.50;97.30;;;;;;5019328;28;20645;-93
2022/02/24 06:30:01;;;;;;;13.50;2.13;;;4.60;97.30;;;;;;5034854;28;20180;-93
2022/02/24 06:32:26;;;;;;;5.13;2.27;;;4.60;97.30;;;;;;5029777;28;20609;-93
2022/02/24 06:34:54;;;;;;;6.87;3.27;;;4.60;97.30;;;;;;5030614;28;20441;-93
2022/02/24 06:37:19;;;;;;;6.40;2.00;;;4.70;97.30;;;;;;5035866;28;20249;-93
2022/02/24 06:39:45;;;;;;;3.10;2.27;;;4.70;97.30;;;;;;5036047;28;20427;-93
2022/02/24 06:42:10;;;;;;;4.30;2.30;;;4.70;97.30;;;;;;5035798;28;20207;-94
2022/02/24 06:44:36;;;;;;;7.10;2.30;;;4.80;97.30;;;;;;5036146;28;20198;-93
2022/02/24 06:47:02;;;;;;;2.43;2.00;;;4.80;97.30;;;;;;5036157;28;20426;-93
2022/02/24 06:49:27;;;;;;;2.80;1.73;;;4.90;97.30;;;;;;5036405;28;20175;-93
2022/02/24 06:51:55;;;;;;;4.30;1.70;;;5.00;97.30;;;;;;5034611;28;20418;-93
2022/02/24 06:54:20;;;;;;;8.20;2.07;;;5.00;97.30;;;;;;5047172;28;20662;-93
2022/02/24 06:56:46;;;;;;;3.40;2.80;;;5.10;97.30;;;;;;5028869;28;20466;-93
2022/02/24 06:59:11;;;;;;;7.00;3.10;;;5.10;97.30;;;;;;5037760;28;20278;-94
2022/02/24 07:01:37;;;;;;;6.20;1.83;;;5.20;97.30;;;;;;5029184;28;20274;-93
2022/02/24 07:04:03;;;;;;;4.50;2.00;;;5.20;97.30;;;;;;5034150;28;20183;-93
2022/02/24 07:06:31;;;;;;;2.77;2.20;;;5.30;97.30;;;;;;5031667;28;20187;-94
2022/02/24 07:08:58;;;;;;;5.80;2.30;;;5.40;97.30;;;;;;5052122;28;20261;-92
2022/02/24 07:11:23;;;;;;;6.93;2.93;;;5.40;97.30;;;;;;5031540;28;20430;-94
2022/02/24 07:13:49;;;;;;;2.67;2.13;;;5.50;97.30;;;;;;5028455;28;20438;-93
2022/02/24 07:16:15;;;;;;;17.27;4.50;;;5.50;97.30;;;;;;5035691;28;20207;-93
2022/02/24 07:18:40;;;;;;;4.00;2.13;;;5.60;97.30;;;;;;5033015;28;20622;-93
2022/02/24 07:21:07;;;;;;;4.10;2.40;;;5.60;97.30;;;;;;5034199;28;20270;-94
2022/02/24 07:23:33;;;;;;;4.73;2.00;;;5.70;97.30;;;;;;5034044;28;20180;-93
2022/02/24 07:26:00;;;;;;;4.20;2.37;;;5.70;97.30;;;;;;5027147;28;20426;-94
2022/02/24 07:28:25;;;;;;;4.57;2.67;;;5.80;97.30;;;;;;5020601;28;20534;-93
2022/02/24 07:30:51;;;;;;;5.03;2.57;;;5.80;97.30;;;;;;5020590;28;20435;-93
2022/02/24 07:33:16;;;;;;;8.37;2.90;;;5.90;97.30;;;;;;5024932;28;20280;-93
2022/02/24 07:35:42;;;;;;;7.03;2.20;;;6.00;97.30;;;;;;5027110;28;20184;-93
2022/02/24 07:38:07;;;;;;;4.57;2.33;;;6.00;97.30;;;;;;5031682;28;20249;-93
2022/02/24 07:40:33;;;;;;;4.07;2.37;;;6.10;97.30;;;;;;5039558;28;20263;-94
2022/02/24 07:42:59;;;;;;;6.40;2.20;;;6.10;97.30;;;;;;5039440;28;20310;-93
2022/02/24 07:45:24;;;;;;;4.97;2.10;;;6.20;97.30;;;;;;5039774;28;20183;-93
2022/02/24 07:47:50;;;;;;;11.00;3.13;;;6.20;97.30;;;;;;5053414;28;20242;-92
2022/02/24 07:50:16;;;;;;;3.87;2.40;;;6.20;97.30;;;;;;5057268;28;20246;-92
2022/02/24 07:52:45;;;;;;;5.63;2.40;;;6.30;97.30;;;;;;5038794;28;20176;-93
2022/02/24 07:55:13;;;;;;;5.37;2.23;;;6.40;97.30;;;;;;5038673;28;20230;-92
2022/02/24 07:57:39;;;;;;;3.63;2.20;;;6.50;97.30;;;;;;5020425;28;20435;-91
2022/02/24 08:00:07;;;;;;;6.30;2.60;;;6.70;97.30;;;;;;5033223;28;20425;-92
2022/02/24 08:02:33;;;;;;;5.47;2.20;;;6.80;96.90;;;;;;5037619;28;20454;-92
2022/02/24 08:04:59;;;;;;;7.60;2.90;;;6.90;96.70;;;;;;5038791;28;20426;-91
2022/02/24 08:07:25;;;;;;;12.93;3.20;;;6.90;96.50;;;;;;5039201;28;20430;-91
2022/02/24 08:09:50;;;;;;;6.20;2.70;;;6.90;96.40;;;;;;5038705;28;20215;-92
2022/02/24 08:15:03;;;;;;;7.30;3.37;;;7.00;96.20;;;;;;5056902;28;20213;-91
2022/02/24 08:17:29;;;;;;;2.97;2.40;;;6.90;96.30;;;;;;5026062;28;20523;-92
2022/02/24 08:19:54;;;;;;;4.40;2.13;;;6.90;96.70;;;;;;5018597;28;20177;-91
2022/02/24 08:22:20;;;;;;;5.20;2.27;;;6.80;96.70;;;;;;5019035;28;20211;-91
2022/02/24 08:24:45;;;;;;;3.33;2.33;;;6.80;96.70;;;;;;5017876;28;20168;-91
2022/02/24 08:27:11;;;;;;;4.73;2.43;;;6.80;96.90;;;;;;5017957;28;20246;-89
2022/02/24 08:29:36;;;;;;;8.53;2.30;;;6.80;96.90;;;;;;5018057;28;20669;-90
2022/02/24 08:32:02;;;;;;;4.17;2.60;;;6.80;97.20;;;;;;5018247;28;20726;-90
2022/02/24 08:34:28;;;;;;;6.10;2.53;;;6.80;96.90;;;;;;5036101;28;20169;-90
2022/02/24 08:36:53;;;;;;;5.67;2.83;;;6.80;96.90;;;;;;5018373;28;20675;-91
2022/02/24 08:39:19;;;;;;;13.63;2.90;;;6.80;96.80;;;;;;5030757;28;20533;-91
2022/02/24 08:41:45;;;;;;;6.37;2.80;;;6.80;97.10;;;;;;5038743;28;20619;-90
2022/02/24 08:44:11;;;;;;;4.40;2.20;;;6.90;97.10;;;;;;5037310;28;20564;-89
2022/02/24 08:46:37;;;;;;;5.70;2.50;;;6.90;96.90;;;;;;5037471;28;20188;-90
2022/02/24 08:49:03;;;;;;;6.97;2.40;;;7.00;96.70;;;;;;5035271;28;20809;-91
2022/02/24 08:51:28;;;;;;;6.53;2.73;;;7.10;96.50;;;;;;5029760;28;20291;-89
2022/02/24 08:53:59;;;;;;;5.77;3.27;;;7.10;96.30;;;;;;5025970;28;20429;-90
2022/02/24 08:56:25;;;;;;;4.83;3.30;;;7.20;96.40;;;;;;5032463;28;20180;-92
2022/02/24 08:58:50;;;;;;;7.33;3.53;;;7.20;96.40;;;;;;5026554;28;20446;-91
2022/02/24 09:01:18;;;;;;;7.80;2.70;;;7.30;96.30;;;;;;5035713;28;20235;-91
2022/02/24 09:03:43;;;;;;;6.50;2.57;;;7.30;96.10;;;;;;5031714;28;20183;-91
2022/02/24 09:06:09;;;;;;;10.53;3.00;;;7.30;96.10;;;;;;5028063;28;20497;-91
2022/02/24 09:08:39;;;;;;;17.43;3.53;;;7.20;96.00;;;;;;5025958;28;20196;-90
2022/02/24 09:11:09;;;;;;;4.30;3.00;;;7.30;96.00;;;;;;5027273;28;20181;-91
2022/02/24 09:13:42;;;;;;;11.00;3.20;;;7.30;96.00;;;;;;5025825;28;20558;-90
2022/02/24 09:16:11;;;;;;;6.67;2.60;;;7.30;96.30;;;;;;5029907;28;20422;-91
2022/02/24 09:18:42;;;;;;;3.80;2.30;;;7.30;96.10;;;;;;5035127;28;20434;-93
2022/02/24 09:21:08;;;;;;;6.10;2.80;;;7.40;96.60;;;;;;5024082;28;20477;-92
2022/02/24 09:23:39;;;;;;;7.93;2.93;;;7.40;95.90;;;;;;5021316;28;20497;-92
2022/02/24 09:26:12;;;;;;;5.30;2.37;;;7.40;95.90;;;;;;5032949;28;20415;-91
2022/02/24 09:28:38;;;;;;;5.00;2.53;;;7.40;96.20;;;;;;5022501;28;20448;-91
2022/02/24 09:31:09;;;;;;;7.30;2.40;;;7.50;95.80;;;;;;5022493;28;20420;-91
2022/02/24 09:33:40;;;;;;;4.40;2.60;;;7.50;96.00;;;;;;5049940;28;20426;-92
2022/02/24 09:36:08;;;;;;;9.43;3.70;;;7.50;95.80;;;;;;5037019;28;20600;-92
2022/02/24 09:38:40;;;;;;;3.83;2.60;;;7.50;95.80;;;;;;5036775;28;20450;-92
2022/02/24 09:41:23;;;;;;;4.10;2.70;;;7.50;95.80;;;;;;5034275;28;20461;-92
2022/02/24 09:43:49;;;;;;;7.50;2.90;;;7.60;95.70;;;;;;5037158;28;20450;-93
2022/02/24 09:46:18;;;;;;;6.20;2.30;;;7.60;95.50;;;;;;5037540;28;20414;-93
2022/02/24 09:48:50;;;;;;;5.03;2.50;;;7.60;95.70;;;;;;5024536;28;20486;-90
2022/02/24 09:51:20;;;;;;;5.13;2.53;;;7.60;95.60;;;;;;5031847;28;20425;-91
2022/02/24 09:53:49;;;;;;;4.67;2.27;;;7.50;95.20;;;;;;5019713;28;20677;-91
2022/02/24 09:56:23;;;;;;;6.33;2.70;;;7.50;95.30;;;;;;5028536;28;21290;-92
2022/02/24 09:58:50;;;;;;;7.90;3.10;;;7.60;94.90;;;;;;5025029;28;20448;-90
2022/02/24 10:01:18;;;;;;;8.10;2.40;;;7.60;95.00;;;;;;5022466;28;20483;-91
2022/02/24 10:03:48;;;;;;;11.60;2.80;;;7.60;94.80;;;;;;5031018;28;20422;-91
2022/02/24 10:06:31;;;;;;;6.00;2.70;;;7.60;95.00;;;;;;5031427;28;20451;-92
2022/02/24 10:08:59;;;;;;;6.57;2.60;;;7.60;94.90;;;;;;5035806;28;20450;-91
2022/02/24 10:11:34;;;;;;;8.17;2.13;;;7.70;94.80;;;;;;5029684;28;20415;-92
2022/02/24 10:14:10;;;;;;;5.47;2.40;;;7.70;94.60;;;;;;5022743;28;20798;-91
2022/02/24 10:16:53;;;;;;;5.40;2.47;;;7.70;94.70;;;;;;5032284;28;20423;-91
2022/02/24 10:19:50;;;;;;;17.50;2.90;;;7.70;94.60;;;;;;5016351;28;20509;-91
2022/02/24 10:22:29;;;;;;;5.90;2.73;;;7.80;94.80;;;;;;5024217;28;21056;-91
2022/02/24 10:25:02;;;;;;;7.17;2.57;;;7.80;94.70;;;;;;5027040;28;20419;-92
2022/02/24 10:27:31;;;;;;;8.43;2.47;;;7.90;94.30;;;;;;5032675;28;20445;-92
2022/02/24 10:30:09;;;;;;;3.00;2.40;;;7.90;94.40;;;;;;5024591;28;20428;-91
2022/02/24 10:32:49;;;;;;;7.90;2.10;;;7.90;94.30;;;;;;5020627;28;20423;-92
2022/02/24 10:35:22;;;;;;;6.70;2.70;;;7.90;94.70;;;;;;5026433;28;20924;-91
2022/02/24 10:38:00;;;;;;;9.67;2.40;;;8.00;94.60;;;;;;5022988;28;20468;-92
2022/02/24 10:40:49;;;;;;;6.83;2.90;;;8.00;94.90;;;;;;5024366;28;20427;-91
2022/02/24 10:43:21;;;;;;;3.27;1.93;;;8.00;94.60;;;;;;5028647;28;20975;-90
2022/02/24 10:45:59;;;;;;;3.20;2.13;;;8.00;95.00;;;;;;5023595;28;20418;-91
2022/02/24 10:48:27;;;;;;;4.73;2.10;;;8.00;95.20;;;;;;5022975;28;20478;-91
2022/02/24 10:51:03;;;;;;;5.73;2.80;;;8.00;95.40;;;;;;5019315;28;20471;-91
2022/02/24 10:53:45;;;;;;;;;;;;;;;;;;;;;
2022/02/24 10:56:12;;;;;;;6.93;2.43;;;8.00;95.40;;;;;;5029109;28;20874;-90
2022/02/24 10:58:42;;;;;;;8.77;2.70;;;8.00;95.40;;;;;;5027144;28;20525;-91
2022/02/24 11:01:22;;;;;;;5.20;2.40;;;8.00;95.30;;;;;;5021821;28;20561;-91
2022/02/24 11:03:59;;;;;;;6.50;2.37;;;8.00;95.10;;;;;;5019637;28;20482;-91
2022/02/24 11:06:42;;;;;;;6.30;2.80;;;8.10;95.40;;;;;;5023574;28;20416;-91
2022/02/24 11:09:10;;;;;;;6.33;3.20;;;8.10;95.40;;;;;;5029178;28;20838;-91
2022/02/24 11:11:41;;;;;;;9.27;2.30;;;8.10;95.30;;;;;;5026900;28;20432;-91
2022/02/24 11:14:10;;;;;;;11.13;2.10;;;8.20;95.50;;;;;;5021757;28;20467;-91
2022/02/24 11:16:39;;;;;;;3.33;2.07;;;8.20;95.10;;;;;;5024386;28;20608;-91
2022/02/24 11:19:08;;;;;;;5.17;2.60;;;8.20;95.20;;;;;;5025378;28;20416;-90
2022/02/24 11:21:41;;;;;;;3.97;2.30;;;8.20;95.00;;;;;;5032566;28;20454;-90
2022/02/24 11:24:09;;;;;;;4.20;2.60;;;8.30;94.70;;;;;;5024833;28;20438;-90
2022/02/24 11:27:05;;;;;;;;;;;;;;;;;;;;;
2022/02/24 11:29:55;;;;;;;;;;;;;;;;;;;;;
2022/02/24 11:32:22;;;;;;;7.47;2.47;;;8.40;94.90;;;;;;5026043;28;20399;-91
2022/02/24 11:35:20;;;;;;;4.03;3.17;;;8.40;95.00;;;;;;5023725;28;20411;-91
2022/02/24 11:38:09;;;;;;;7.40;2.60;;;8.40;94.80;;;;;;5024967;28;20431;-91
2022/02/24 11:40:43;;;;;;;4.47;2.20;;;8.50;94.90;;;;;;5024131;28;20473;-91
2022/02/24 11:43:22;;;;;;;4.87;2.20;;;8.50;94.70;;;;;;5029558;28;20973;-90
2022/02/24 11:45:50;;;;;;;3.60;2.23;;;8.60;94.70;;;;;;5018838;28;20424;-91
2022/02/24 11:48:20;;;;;;;6.50;2.10;;;8.60;94.60;;;;;;5033559;28;20482;-91
2022/02/24 11:50:59;;;;;;;13.53;2.67;;;8.70;94.20;;;;;;5034854;28;20431;-91
2022/02/24 11:53:28;;;;;;;14.80;2.80;;;8.80;94.20;;;;;;5026582;28;20480;-91
2022/02/24 11:55:57;;;;;;;6.27;2.40;;;8.80;93.80;;;;;;5023647;28;20431;-90
2022/02/24 11:58:45;;;;;;;9.77;2.70;;;8.90;93.60;;;;;;5021477;28;20551;-91
2022/02/24 12:01:14;;;;;;;7.50;2.43;;;9.00;93.20;;;;;;5019019;28;20998;-90
2022/02/24 12:03:46;;;;;;;3.83;2.90;;;9.10;93.30;;;;;;5035342;28;20407;-91
2022/02/24 12:06:19;;;;;;;4.70;2.57;;;9.30;92.80;;;;;;5034921;28;20506;-90
2022/02/24 12:09:02;;;;;;;3.47;2.00;;;9.40;93.00;;;;;;5034688;28;20477;-91
2022/02/24 12:11:38;;;;;;;5.17;2.40;;;9.50;92.90;;;;;;5018260;28;20827;-92
2022/02/24 12:14:19;;;;;;;6.43;2.67;;;9.60;92.50;;;;;;5034790;28;20431;-90
2022/02/24 12:17:08;;;;;;;9.27;2.60;;;9.70;92.70;;;;;;5023712;28;20428;-91
2022/02/24 12:19:58;;;;;;;6.13;2.53;;;9.80;91.90;;;;;;5030716;28;20423;-89
2022/02/24 12:22:33;;;;;;;3.50;1.87;;;9.90;91.30;;;;;;5014837;28;20464;-91
2022/02/24 12:25:22;;;;;;;14.73;2.23;;;9.90;91.40;;;;;;5021472;28;20422;-92
2022/02/24 12:28:06;;;;;;;7.93;2.37;;;9.90;91.00;;;;;;5023441;28;20463;-89
2022/02/24 12:30:37;;;;;;;14.37;2.97;;;10.00;91.20;;;;;;5023604;28;20439;-91
2022/02/24 12:33:08;;;;;;;13.60;2.40;;;10.00;91.20;;;;;;5014012;28;20424;-89
2022/02/24 12:35:39;;;;;;;5.83;2.37;;;10.10;91.10;;;;;;5015930;28;20396;-91
2022/02/24 12:38:10;;;;;;;4.07;2.30;;;10.30;91.20;;;;;;5024566;28;20454;-90
2022/02/24 12:40:41;;;;;;;2.83;2.10;;;10.40;90.60;;;;;;5031006;28;20466;-92
2022/02/24 12:43:09;;;;;;;5.20;2.30;;;10.40;90.60;;;;;;5032288;28;20494;-93
2022/02/24 12:45:36;;;;;;;6.00;2.10;;;10.40;90.10;;;;;;5035612;28;20534;-92
2022/02/24 12:48:05;;;;;;;5.00;2.07;;;10.50;90.50;;;;;;5020395;28;20955;-92
2022/02/24 12:50:41;;;;;;;3.40;2.10;;;10.50;89.80;;;;;;5013512;28;20416;-92
2022/02/24 12:53:16;;;;;;;4.70;2.70;;;10.60;89.90;;;;;;5016382;28;20407;-93
2022/02/24 12:55:43;;;;;;;4.47;2.23;;;10.70;89.70;;;;;;5015035;28;20415;-91
2022/02/24 12:58:11;;;;;;;4.73;2.17;;;10.90;89.60;;;;;;5014116;28;20445;-93
2022/02/24 13:00:39;;;;;;;5.47;2.20;;;11.00;89.60;;;;;;5014351;28;20440;-91
2022/02/24 13:03:05;;;;;;;4.23;1.73;;;11.00;89.00;;;;;;5014405;28;20840;-92
2022/02/24 13:05:33;;;;;;;6.00;2.00;;;11.00;88.70;;;;;;5014823;28;20415;-92
2022/02/24 13:10:59;;;;;;;3.00;1.93;;;11.00;89.40;;;;;;5023349;28;20419;-91
2022/02/24 13:13:26;;;;;;;6.37;2.20;;;11.10;88.80;;;;;;5025091;28;20410;-91